Time;durP1;ratioP1;P1;durP2;ratioP2;P2;SDS_P1;SDS_P2;PMS_P1;PMS_P2;Temp;Humidity;BMP_temperature;BMP_pressure;BME280_temperature;BME280_humidity;BME280_pressure;Samples;Min_cycle;Max_cycle;Signal;HPM_P1;HPM_P2
2024/04/11 00:00:22;;;;;;;13.70;3.72;;;;;;;7.27;100.00;101879.16;7393898;19;20011;-78
2024/04/11 00:02:48;;;;;;;7.30;4.00;;;;;;;7.37;100.00;101903.69;7392730;19;20877;-79
2024/04/11 00:05:14;;;;;;;7.72;3.75;;;;;;;7.37;100.00;101917.72;7397596;19;20015;-80
2024/04/11 00:07:40;;;;;;;9.20;3.72;;;;;;;7.63;100.00;101966.66;7394874;19;20034;-79
2024/04/11 00:10:06;;;;;;;7.07;3.65;;;;;;;7.51;100.00;101930.78;7393903;19;20022;-80
2024/04/11 00:12:32;;;;;;;8.80;3.90;;;;;;;7.62;100.00;101947.34;7392908;19;20028;-79
2024/04/11 00:14:57;;;;;;;7.07;4.20;;;;;;;7.53;100.00;101923.72;7406859;19;20010;-79
2024/04/11 00:17:24;;;;;;;10.27;4.00;;;;;;;7.45;100.00;101932.56;7420491;19;20017;-79
2024/04/11 00:19:55;;;;;;;12.63;4.20;;;;;;;6.88;100.00;101863.72;7419621;19;20003;-77
2024/04/11 00:22:21;;;;;;;8.05;3.85;;;;;;;7.00;100.00;101900.50;7418889;19;20010;-77
2024/04/11 00:24:46;;;;;;;9.20;4.03;;;;;;;7.07;100.00;101923.28;7411849;19;20017;-78
2024/04/11 00:27:12;;;;;;;10.38;4.05;;;;;;;6.82;100.00;101887.47;7424852;19;20006;-76
2024/04/11 00:29:38;;;;;;;6.55;4.22;;;;;;;6.56;100.00;101856.97;7421675;19;20018;-77
2024/04/11 00:32:05;;;;;;;12.48;4.40;;;;;;;6.89;100.00;101923.41;7380042;19;20014;-80
2024/04/11 00:34:33;;;;;;;8.32;4.22;;;;;;;6.94;100.00;101921.59;7402315;19;20376;-78
2024/04/11 00:36:59;;;;;;;8.23;4.10;;;;;;;6.76;100.00;101903.34;7397116;19;20022;-79
2024/04/11 00:39:25;;;;;;;10.55;4.20;;;;;;;6.88;100.00;101929.56;7400941;19;20014;-78
2024/04/11 00:41:52;;;;;;;9.25;4.25;;;;;;;6.62;100.00;101893.75;7401624;19;20035;-80
2024/04/11 00:44:18;;;;;;;8.05;4.45;;;;;;;6.53;100.00;101874.53;7397545;19;20021;-79
2024/04/11 00:46:54;;;;;;;7.38;4.13;;;;;;;6.61;100.00;101876.19;7395380;19;20025;-79
2024/04/11 00:49:20;;;;;;;10.75;4.60;;;;;;;6.79;100.00;101895.38;7396058;19;20002;-80
2024/04/11 00:51:47;;;;;;;10.85;4.65;;;;;;;6.82;100.00;101900.63;7390095;19;20010;-76
2024/04/11 00:54:15;;;;;;;7.72;4.18;;;;;;;6.52;100.00;101847.34;7396796;19;20026;-79
2024/04/11 00:56:42;;;;;;;8.63;4.47;;;;;;;6.76;100.00;101884.91;7395669;19;20034;-78
2024/04/11 00:59:09;;;;;;;7.45;3.95;;;;;;;6.97;100.00;101924.22;7396016;19;20039;-80
2024/04/11 01:01:35;;;;;;;10.73;4.70;;;;;;;6.64;100.00;101863.03;7394897;19;20010;-78
2024/04/11 01:04:05;;;;;;;8.40;4.13;;;;;;;6.76;100.00;101885.78;7400940;19;20018;-78
2024/04/11 01:06:42;;;;;;;10.18;4.28;;;;;;;6.71;100.00;101884.94;7395683;19;20033;-79
2024/04/11 01:09:17;;;;;;;7.18;4.35;;;;;;;6.66;100.00;101879.69;7398213;19;20054;-81
2024/04/11 01:11:43;;;;;;;9.07;4.57;;;;;;;6.74;100.00;101890.19;7393461;19;20031;-79
2024/04/11 01:14:09;;;;;;;10.30;4.65;;;;;;;6.46;100.00;101841.22;7398921;19;20015;-79
2024/04/11 01:16:35;;;;;;;9.55;4.50;;;;;;;6.82;100.00;101898.00;7400390;19;20018;-81
2024/04/11 01:19:01;;;;;;;7.55;4.40;;;;;;;6.45;100.00;101835.13;7398862;19;20022;-79
2024/04/11 01:21:26;;;;;;;10.23;4.57;;;;;;;6.36;100.00;101831.66;7394425;19;20022;-77
2024/04/11 01:23:53;;;;;;;9.00;4.68;;;;;;;5.90;100.00;101759.19;7423705;19;20030;-78
2024/04/11 01:26:18;;;;;;;9.25;4.47;;;;;;;6.67;100.00;101896.34;7391971;19;20657;-80
2024/04/11 01:28:45;;;;;;;8.00;4.85;;;;;;;6.72;100.00;101920.03;7371826;19;20049;-80
2024/04/11 01:31:12;;;;;;;10.27;4.43;;;;;;;6.20;100.00;101830.88;7392018;19;20451;-79
2024/04/11 01:33:38;;;;;;;7.72;4.40;;;;;;;6.56;100.00;101903.47;7395200;19;20030;-81
2024/04/11 01:36:06;;;;;;;7.68;3.90;;;;;;;6.14;100.00;101839.66;7395179;19;20006;-79
2024/04/11 01:38:32;;;;;;;9.70;4.40;;;;;;;6.40;100.00;101886.03;7393518;19;20018;-81
2024/04/11 01:40:58;;;;;;;10.93;4.32;;;;;;;6.50;100.00;101919.28;7392171;19;20038;-77
2024/04/11 01:43:23;;;;;;;8.80;4.25;;;;;;;5.95;100.00;101844.19;7393776;19;20026;-80
2024/04/11 01:45:49;;;;;;;10.60;4.68;;;;;;;5.98;100.00;101852.03;7370909;19;20014;-80
2024/04/11 01:48:15;;;;;;;8.75;4.30;;;;;;;6.36;100.00;101929.88;7394049;19;20007;-80
2024/04/11 01:50:41;;;;;;;12.55;4.55;;;;;;;6.20;100.00;101899.28;7391506;19;20006;-79
2024/04/11 01:53:07;;;;;;;10.63;4.68;;;;;;;5.98;100.00;101867.81;7389680;19;20011;-79
2024/04/11 01:55:33;;;;;;;11.25;4.28;;;;;;;6.31;100.00;101922.00;7390873;19;20011;-79
2024/04/11 01:58:01;;;;;;;7.55;4.30;;;;;;;6.18;100.00;101911.56;7391749;19;20054;-78
2024/04/11 02:00:29;;;;;;;8.52;3.97;;;;;;;6.24;100.00;101922.06;7394229;19;20454;-81
2024/04/11 02:02:56;;;;;;;8.40;3.95;;;;;;;6.14;100.00;101905.44;7394083;19;20022;-79
2024/04/11 02:05:23;;;;;;;8.13;4.15;;;;;;;6.01;100.00;101885.34;7394186;19;20017;-79
2024/04/11 02:07:49;;;;;;;5.88;3.88;;;;;;;5.98;100.00;101885.38;7391350;19;20026;-80
2024/04/11 02:10:15;;;;;;;7.43;4.32;;;;;;;5.88;100.00;101889.78;7391470;19;20014;-80
2024/04/11 02:12:41;;;;;;;9.85;4.32;;;;;;;5.89;100.00;101914.31;7389864;19;20114;-80
2024/04/11 02:15:07;;;;;;;8.60;4.70;;;;;;;6.07;100.00;101931.78;7392341;19;20365;-79
2024/04/11 02:17:35;;;;;;;9.00;4.82;;;;;;;6.08;100.00;101934.41;7392590;19;20023;-80
2024/04/11 02:20:00;;;;;;;13.35;5.13;;;;;;;6.04;100.00;101916.88;7391019;19;20403;-79
2024/04/11 02:22:26;;;;;;;8.35;4.78;;;;;;;6.03;100.00;101917.75;7389681;19;20011;-80
2024/04/11 02:24:51;;;;;;;9.48;4.70;;;;;;;5.98;100.00;101920.41;7392782;19;20007;-79
2024/04/11 02:27:18;;;;;;;10.73;4.63;;;;;;;5.93;100.00;101924.81;7394002;19;20085;-80
2024/04/11 02:29:47;;;;;;;12.35;5.53;;;;;;;5.46;100.00;101850.47;7391983;19;20015;-78
2024/04/11 02:32:14;;;;;;;10.18;5.10;;;;;;;5.47;100.00;101852.22;7387277;19;20018;-77
2024/04/11 02:34:40;;;;;;;11.27;5.43;;;;;;;5.88;100.00;101938.81;7392309;19;20476;-79
2024/04/11 02:37:08;;;;;;;11.55;5.03;;;;;;;5.82;100.00;101928.34;7391424;19;20015;-78
2024/04/11 02:39:34;;;;;;;11.55;4.70;;;;;;;5.96;100.00;101956.38;7392584;19;20015;-79
2024/04/11 02:42:00;;;;;;;9.57;5.30;;;;;;;6.06;100.00;101974.72;7388902;19;20018;-80
2024/04/11 02:44:25;;;;;;;10.77;5.55;;;;;;;5.74;100.00;101912.56;7394438;19;20025;-78
2024/04/11 02:46:51;;;;;;;9.88;5.65;;;;;;;5.62;100.00;101891.59;7396180;19;20006;-79
2024/04/11 02:49:16;;;;;;;9.65;4.95;;;;;;;5.96;100.00;101950.22;7394772;19;20019;-78
2024/04/11 02:51:43;;;;;;;7.70;4.70;;;;;;;6.14;100.00;101981.69;7389246;19;20360;-78
2024/04/11 02:54:10;;;;;;;11.10;5.10;;;;;;;6.01;100.00;101971.22;7390629;19;20363;-81
2024/04/11 02:56:41;;;;;;;8.18;4.40;;;;;;;5.96;100.00;101973.91;7393130;19;20018;-79
2024/04/11 02:59:06;;;;;;;6.57;4.55;;;;;;;5.59;100.00;101920.50;7391300;19;20007;-79
2024/04/11 03:01:33;;;;;;;7.35;4.47;;;;;;;5.95;100.00;101985.28;7388457;19;20091;-79
2024/04/11 03:04:01;;;;;;;9.70;4.72;;;;;;;5.67;100.00;101949.41;7420972;19;20043;-76
2024/04/11 03:06:27;;;;;;;9.85;5.10;;;;;;;5.80;100.00;101994.06;7405264;19;20025;-79
2024/04/11 03:08:56;;;;;;;12.95;5.43;;;;;;;5.40;100.00;101918.78;7369963;19;20019;-82
2024/04/11 03:11:25;;;;;;;7.70;4.57;;;;;;;5.46;100.00;101940.66;7366840;19;20058;-81
2024/04/11 03:14:00;;;;;;;10.32;5.05;;;;;;;5.72;100.00;101990.56;7368693;19;20021;-78
2024/04/11 03:16:30;;;;;;;7.68;4.75;;;;;;;5.70;100.00;101986.16;7392565;19;20491;-79
2024/04/11 03:18:58;;;;;;;10.15;5.20;;;;;;;5.51;100.00;101954.66;7391234;19;20011;-78
2024/04/11 03:21:24;;;;;;;9.93;5.15;;;;;;;5.67;100.00;101976.53;7389867;19;20328;-78
2024/04/11 03:23:50;;;;;;;12.63;5.90;;;;;;;5.59;100.00;101971.31;7389614;19;20018;-80
2024/04/11 03:26:16;;;;;;;15.50;5.47;;;;;;;4.96;100.00;101856.69;7390892;19;20039;-78
2024/04/11 03:28:42;;;;;;;12.68;5.65;;;;;;;5.57;100.00;101970.44;7391863;19;20011;-80
2024/04/11 03:31:10;;;;;;;8.48;5.03;;;;;;;5.67;100.00;101992.31;7391253;19;20345;-80
2024/04/11 03:33:37;;;;;;;12.02;5.32;;;;;;;5.55;100.00;101976.56;7389781;19;20021;-79
2024/04/11 03:36:12;;;;;;;10.35;4.88;;;;;;;5.36;100.00;101943.28;7368105;19;20027;-79
2024/04/11 03:38:39;;;;;;;7.80;4.85;;;;;;;5.17;100.00;101922.31;7389451;19;20353;-79
2024/04/11 03:41:08;;;;;;;8.32;5.55;;;;;;;5.41;100.00;101967.81;7388939;19;20022;-78
2024/04/11 03:43:37;;;;;;;9.90;4.95;;;;;;;5.65;100.00;102004.59;7384103;19;20015;-79
2024/04/11 03:46:19;;;;;;;8.52;5.22;;;;;;;5.47;100.00;101984.47;7388600;19;20045;-78
2024/04/11 03:48:51;;;;;;;13.00;5.60;;;;;;;5.58;100.00;101997.59;7391843;19;20113;-79
2024/04/11 03:51:19;;;;;;;10.85;5.40;;;;;;;5.45;100.00;101991.47;7387305;19;20015;-79
2024/04/11 03:53:46;;;;;;;9.02;5.38;;;;;;;5.46;100.00;101993.22;7386319;19;20015;-81
2024/04/11 03:56:18;;;;;;;7.97;4.97;;;;;;;5.57;100.00;102011.59;7385732;19;20463;-80
2024/04/11 03:58:45;;;;;;;8.40;5.18;;;;;;;5.53;100.00;102008.09;7390143;19;20015;-79
2024/04/11 04:01:18;;;;;;;8.10;5.20;;;;;;;5.49;100.00;102009.00;7390398;19;20050;-79
2024/04/11 04:03:49;;;;;;;11.30;4.50;;;;;;;5.28;100.00;101994.09;7387728;19;20473;-80
2024/04/11 04:06:15;;;;;;;6.97;3.72;;;;;;;5.15;100.00;101986.22;7390381;19;20019;-78
2024/04/11 04:08:44;;;;;;;7.75;4.80;;;;;;;4.78;100.00;101933.66;7390756;19;20029;-81
2024/04/11 04:11:11;;;;;;;10.52;4.80;;;;;;;5.20;100.00;102015.97;7388887;19;20015;-79
2024/04/11 04:13:39;;;;;;;9.48;4.90;;;;;;;5.08;100.00;101997.56;7384305;19;20011;-80
2024/04/11 04:16:10;;;;;;;15.30;5.60;;;;;;;5.17;100.00;102022.13;7391080;19;20016;-80
2024/04/11 04:18:46;;;;;;;9.95;5.20;;;;;;;4.71;100.00;101937.19;7388943;19;20040;-79
2024/04/11 04:21:16;;;;;;;9.13;4.78;;;;;;;5.00;100.00;101989.69;7386003;19;20015;-78
2024/04/11 04:23:42;;;;;;;11.50;4.85;;;;;;;4.81;100.00;101954.69;7366493;19;20017;-79
2024/04/11 04:26:09;;;;;;;10.10;4.70;;;;;;;5.02;100.00;101987.09;7398585;19;20715;-78
2024/04/11 04:28:38;;;;;;;9.40;4.40;;;;;;;5.13;100.00;102009.84;7397819;19;20023;-80
2024/04/11 04:31:16;;;;;;;8.68;4.75;;;;;;;5.18;100.00;102021.25;7397454;19;20022;-80
2024/04/11 04:33:43;;;;;;;11.25;4.75;;;;;;;5.03;100.00;101991.47;7414425;19;20030;-79
2024/04/11 04:36:15;;;;;;;9.68;5.00;;;;;;;5.08;100.00;102015.94;7417127;19;22390;-77
2024/04/11 04:38:41;;;;;;;9.43;4.65;;;;;;;4.72;100.00;101964.28;7427127;19;20050;-76
2024/04/11 04:41:07;;;;;;;10.20;4.72;;;;;;;4.65;100.00;101931.03;7425829;19;20039;-77
2024/04/11 04:43:33;;;;;;;10.35;4.63;;;;;;;5.11;100.00;102016.84;7421898;19;20043;-78
2024/04/11 04:45:59;;;;;;;9.07;4.55;;;;;;;4.73;100.00;101950.28;7426067;19;20023;-77
2024/04/11 04:48:24;;;;;;;9.10;4.18;;;;;;;5.13;100.00;102022.09;7425870;19;20038;-78
2024/04/11 04:50:50;;;;;;;10.48;4.65;;;;;;;5.08;100.00;102002.81;7401234;19;20582;-78
2024/04/11 04:53:15;;;;;;;8.35;4.65;;;;;;;5.13;100.00;102014.22;7393407;19;20367;-78
2024/04/11 04:55:41;;;;;;;10.07;4.65;;;;;;;5.13;100.00;102016.84;7399934;19;20014;-79
2024/04/11 04:58:06;;;;;;;11.00;4.93;;;;;;;4.95;100.00;101994.06;7398472;19;20047;-83
2024/04/11 05:00:34;;;;;;;9.23;5.65;;;;;;;5.17;100.00;102047.50;7399214;19;20023;-78
2024/04/11 05:03:08;;;;;;;8.45;4.85;;;;;;;5.19;100.00;102044.00;7395293;19;20010;-78
2024/04/11 05:05:40;;;;;;;11.00;5.00;;;;;;;5.18;100.00;102047.50;7394475;19;20025;-80
2024/04/11 05:08:07;;;;;;;8.80;4.80;;;;;;;5.18;100.00;102049.25;7397904;19;20029;-79
2024/04/11 05:10:34;;;;;;;13.50;5.53;;;;;;;4.71;100.00;101949.41;7398816;19;20021;-78
2024/04/11 05:13:01;;;;;;;14.45;5.75;;;;;;;5.28;100.00;102051.00;7393430;19;20066;-79
2024/04/11 05:15:28;;;;;;;13.30;5.90;;;;;;;4.92;100.00;102005.44;7396009;19;20035;-78
2024/04/11 05:17:54;;;;;;;10.73;6.38;;;;;;;4.60;100.00;101952.00;7374222;19;20006;-78
2024/04/11 05:20:27;;;;;;;11.63;5.45;;;;;;;4.64;100.00;101960.75;7397985;19;20741;-78
2024/04/11 05:22:53;;;;;;;11.02;5.65;;;;;;;4.50;100.00;101945.88;7392482;19;20011;-81
2024/04/11 05:25:21;;;;;;;13.35;6.15;;;;;;;4.80;100.00;101991.41;7397914;19;20479;-79
2024/04/11 05:27:47;;;;;;;9.75;5.93;;;;;;;5.22;100.00;102046.59;7399766;19;20017;-79
2024/04/11 05:30:12;;;;;;;11.30;5.70;;;;;;;5.12;100.00;102020.34;7403147;19;20044;-78
2024/04/11 05:32:43;;;;;;;13.40;6.03;;;;;;;5.34;100.00;102044.88;7396201;19;20380;-80
2024/04/11 05:35:09;;;;;;;13.73;5.45;;;;;;;5.43;100.00;102055.38;7382508;19;20411;-80
2024/04/11 05:37:36;;;;;;;12.57;6.00;;;;;;;5.46;100.00;102060.66;7397585;19;20021;-76
2024/04/11 05:40:05;;;;;;;10.93;5.95;;;;;;;5.11;100.00;101989.69;7401524;19;20021;-79
2024/04/11 05:42:32;;;;;;;11.77;6.32;;;;;;;5.25;100.00;102014.22;7397012;19;20028;-79
2024/04/11 05:45:00;;;;;;;15.35;6.47;;;;;;;5.63;100.00;102056.28;7396059;19;20078;-78
2024/04/11 05:47:27;;;;;;;11.60;6.13;;;;;;;5.37;100.00;101997.59;7397352;19;20490;-77
2024/04/11 05:49:53;;;;;;;12.10;5.70;;;;;;;5.35;100.00;101975.72;7393075;19;20099;-78
2024/04/11 05:52:18;;;;;;;8.18;5.32;;;;;;;5.99;100.00;102087.81;7396148;19;20495;-78
2024/04/11 05:54:46;;;;;;;12.40;5.35;;;;;;;5.51;100.00;101977.47;7392446;19;20006;-81
2024/04/11 05:57:12;;;;;;;11.68;6.07;;;;;;;5.81;100.00;102010.72;7399953;19;20018;-78
2024/04/11 05:59:38;;;;;;;12.88;5.97;;;;;;;6.18;100.00;102058.84;7395308;19;20015;-80
2024/04/11 06:02:06;;;;;;;14.35;5.97;;;;;;;6.38;100.00;102083.38;7392111;19;20006;-79
2024/04/11 06:04:31;;;;;;;12.15;5.63;;;;;;;6.36;100.00;102064.06;7392545;19;20006;-80
2024/04/11 06:06:58;;;;;;;10.73;5.53;;;;;;;6.32;100.00;102051.78;7375728;19;20024;-79
2024/04/11 06:09:24;;;;;;;13.50;5.72;;;;;;;6.50;100.00;102062.25;7397444;19;20232;-78
2024/04/11 06:11:53;;;;;;;11.70;5.88;;;;;;;6.80;100.00;102086.72;7371824;19;20494;-79
2024/04/11 06:14:18;;;;;;;11.95;5.65;;;;;;;6.84;100.00;102077.91;7394691;19;20014;-80
2024/04/11 06:16:44;;;;;;;12.65;5.85;;;;;;;6.88;100.00;102069.13;7399814;19;20026;-79
2024/04/11 06:19:10;;;;;;;10.00;5.65;;;;;;;7.11;100.00;102083.03;7398229;19;20002;-81
2024/04/11 06:21:36;;;;;;;11.18;5.53;;;;;;;7.04;100.00;102052.34;7407453;19;20051;-78
2024/04/11 06:24:02;;;;;;;12.18;5.88;;;;;;;7.38;100.00;102082.88;7413271;19;20094;-79
2024/04/11 06:26:28;;;;;;;15.02;6.00;;;;;;;7.48;100.00;102085.44;7372252;19;20066;-78
2024/04/11 06:28:55;;;;;;;21.27;6.65;;;;;;;7.16;100.00;102012.75;7394951;19;20014;-79
2024/04/11 06:31:24;;;;;;;11.85;5.93;;;;;;;7.70;100.00;102077.34;7395646;19;20019;-79
2024/04/11 06:33:54;;;;;;;17.30;6.55;;;;;;;7.87;100.00;102085.09;7391826;19;20010;-78
2024/04/11 06:36:21;;;;;;;15.57;6.13;;;;;;;7.70;100.00;102015.84;7393285;19;20034;-79
2024/04/11 06:38:48;;;;;;;13.82;6.75;;;;;;;8.23;100.00;102067.16;7393039;19;20013;-80
2024/04/11 06:41:22;;;;;;;17.85;7.43;;;;;;;8.48;100.00;102044.94;7392186;19;20390;-81
2024/04/11 06:43:50;;;;;;;16.90;7.43;;;;;;;8.94;100.00;102054.91;7369883;19;20371;-77
2024/04/11 06:46:17;;;;;;;24.10;7.35;;;;;;;9.49;100.00;102061.09;7386784;19;20034;-78
2024/04/11 06:48:49;;;;;;;16.77;7.40;;;;;;;9.80;100.00;102040.28;7389417;19;20130;-80
2024/04/11 06:51:20;;;;;;;13.48;6.97;;;;;;;10.17;100.00;102031.69;7391087;19;20022;-80
2024/04/11 06:53:47;;;;;;;;;;;;;;;10.79;100.00;102056.91;7390366;19;20011;-81
2024/04/11 06:56:17;;;;;;;18.92;6.70;;;;;;;10.95;100.00;102012.41;7393028;19;19914;-78
2024/04/11 06:58:45;;;;;;;15.07;6.60;;;;;;;11.55;96.24;102022.44;7391647;19;20007;-79
2024/04/11 07:01:15;;;;;;;15.88;6.35;;;;;;;11.98;89.05;102053.22;7392637;19;20511;-80
2024/04/11 07:03:43;;;;;;;13.93;6.57;;;;;;;11.98;89.01;102030.19;7384878;19;20035;-81
2024/04/11 07:06:16;;;;;;;15.20;7.00;;;;;;;12.38;85.65;102053.00;7388235;19;20010;-79
2024/04/11 07:08:43;;;;;;;13.10;6.65;;;;;;;12.61;80.59;102040.78;7368446;19;20574;-81
2024/04/11 07:11:27;;;;;;;14.68;7.53;;;;;;;12.75;77.81;102032.41;7386050;19;20516;-82
2024/04/11 07:13:54;;;;;;;14.52;6.53;;;;;;;12.78;74.60;102000.41;7386389;19;20038;-78
2024/04/11 07:16:32;;;;;;;11.88;5.82;;;;;;;13.07;71.50;102003.97;7390217;19;20011;-79
2024/04/11 07:18:59;;;;;;;11.60;5.95;;;;;;;13.34;70.16;102043.03;7391554;19;20018;-78
2024/04/11 07:21:26;;;;;;;11.80;5.15;;;;;;;13.27;70.25;102046.78;7390270;19;20449;-80
2024/04/11 07:23:57;;;;;;;10.15;5.72;;;;;;;13.08;71.40;102027.84;7386676;19;20010;-79
2024/04/11 07:26:29;;;;;;;12.75;5.43;;;;;;;13.00;69.92;102000.63;7389597;19;20602;-81
2024/04/11 07:28:55;;;;;;;16.98;6.75;;;;;;;13.40;70.76;102053.47;7387203;19;20009;-80
2024/04/11 07:31:21;;;;;;;11.90;6.25;;;;;;;13.51;68.48;102051.34;7390452;19;20022;-80
2024/04/11 07:33:48;;;;;;;9.95;5.90;;;;;;;13.31;69.79;102067.06;7389869;19;20018;-81
2024/04/11 07:36:16;;;;;;;16.35;6.03;;;;;;;12.99;70.05;101959.00;7382574;19;20011;-78
2024/04/11 07:38:43;;;;;;;13.10;6.25;;;;;;;14.00;67.04;102041.69;7389928;19;20479;-79
2024/04/11 07:41:16;;;;;;;13.50;6.28;;;;;;;14.12;63.98;102062.56;7388750;19;20022;-79
2024/04/11 07:43:47;;;;;;;9.98;6.35;;;;;;;13.50;63.97;102008.81;7389404;19;20050;-79
2024/04/11 07:46:16;;;;;;;11.40;6.35;;;;;;;13.55;65.94;102074.25;7387699;19;20022;-78
2024/04/11 07:48:52;;;;;;;12.35;6.32;;;;;;;13.56;66.01;102083.97;7389697;19;20133;-77
2024/04/11 07:51:20;;;;;;;11.57;6.47;;;;;;;13.21;69.41;102076.28;7385809;19;20447;-80
2024/04/11 07:53:47;;;;;;;13.15;6.50;;;;;;;13.36;68.62;102032.34;7388480;19;20020;-81
2024/04/11 07:56:20;;;;;;;14.85;6.15;;;;;;;13.91;65.40;102090.81;7386933;19;20014;-79
2024/04/11 07:58:51;;;;;;;14.98;6.78;;;;;;;13.37;66.58;102093.50;7395864;19;20046;-80
2024/04/11 08:01:17;;;;;;;14.88;7.10;;;;;;;12.62;70.05;102068.25;7397979;19;20122;-78
2024/04/11 08:03:43;;;;;;;11.02;6.95;;;;;;;12.32;74.76;102090.34;7419649;19;20007;-80
2024/04/11 08:06:10;;;;;;;11.50;6.88;;;;;;;12.12;76.44;102089.09;7394322;19;20019;-78
2024/04/11 08:08:36;;;;;;;12.48;6.80;;;;;;;12.41;77.00;102106.06;7395405;19;20014;-79
2024/04/11 08:11:02;;;;;;;12.13;6.60;;;;;;;12.30;75.87;102051.44;7397263;19;20018;-79
2024/04/11 08:13:32;;;;;;;12.40;6.25;;;;;;;12.40;72.73;102057.38;7398261;19;20018;-81
2024/04/11 08:15:58;;;;;;;14.77;6.70;;;;;;;12.89;73.25;102115.31;7395004;19;20024;-81
2024/04/11 08:18:27;;;;;;;14.40;7.30;;;;;;;12.74;73.76;102089.19;7396213;19;20015;-80
2024/04/11 08:20:54;;;;;;;17.35;7.85;;;;;;;12.75;73.56;102079.41;7394416;19;20018;-82
2024/04/11 08:23:21;;;;;;;12.73;6.97;;;;;;;13.15;73.61;102098.59;7395690;19;20020;-80
2024/04/11 08:25:52;;;;;;;12.98;6.82;;;;;;;13.52;72.02;102084.16;7390890;19;20026;-81
2024/04/11 08:28:18;;;;;;;14.52;7.45;;;;;;;13.76;68.49;102061.16;7395311;19;20137;-79
2024/04/11 08:30:46;;;;;;;13.88;6.47;;;;;;;13.90;63.97;102080.19;7394379;19;20064;-81
2024/04/11 08:33:12;;;;;;;12.50;7.15;;;;;;;13.85;65.70;102127.44;7395134;19;20108;-83
2024/04/11 08:35:37;;;;;;;13.40;6.40;;;;;;;13.63;66.92;102112.16;7388457;19;20738;-82
2024/04/11 08:38:06;;;;;;;11.55;5.97;;;;;;;13.45;68.01;102062.19;7395192;19;20039;-78
2024/04/11 08:40:39;;;;;;;11.18;5.50;;;;;;;13.99;65.18;102058.59;7395960;19;20017;-82
2024/04/11 08:43:05;;;;;;;10.55;5.55;;;;;;;14.46;60.75;102016.94;7394201;19;20475;-79
2024/04/11 08:45:34;;;;;;;11.68;6.13;;;;;;;15.35;57.86;102075.72;7391700;19;20494;-81
2024/04/11 08:48:01;;;;;;;11.32;5.50;;;;;;;15.51;55.74;102074.16;7396051;19;20017;-80
2024/04/11 08:50:29;;;;;;;8.23;5.32;;;;;;;15.70;54.57;102101.88;7395014;19;20011;-78
2024/04/11 08:52:56;;;;;;;12.20;4.95;;;;;;;15.70;55.00;102101.88;7394983;19;20006;-82
2024/04/11 08:55:23;;;;;;;13.00;5.13;;;;;;;15.67;55.39;102080.66;7391389;19;20011;-78
2024/04/11 08:57:50;;;;;;;9.80;4.70;;;;;;;15.91;55.24;102121.47;7394463;19;20017;-79
2024/04/11 09:00:23;;;;;;;13.38;4.97;;;;;;;15.60;54.44;102097.84;7393702;19;20038;-82
2024/04/11 09:02:51;;;;;;;7.95;4.15;;;;;;;15.53;55.45;102099.00;7392534;19;20018;-77
2024/04/11 09:05:16;;;;;;;8.65;3.88;;;;;;;15.12;54.77;102078.41;7388324;19;20054;-78
2024/04/11 09:07:46;;;;;;;12.68;4.53;;;;;;;15.38;55.99;102107.63;7394852;19;20337;-80
2024/04/11 09:10:12;;;;;;;10.68;4.15;;;;;;;15.26;55.11;102110.78;7390104;19;20014;-79
2024/04/11 09:12:44;;;;;;;8.48;3.30;;;;;;;15.04;55.48;102063.59;7394770;19;20042;-79
2024/04/11 09:15:10;;;;;;;8.50;3.13;;;;;;;15.28;53.70;102063.53;7390811;19;20037;-80
2024/04/11 09:17:45;;;;;;;8.35;3.45;;;;;;;15.62;53.15;102090.63;7371155;19;20019;-81
2024/04/11 09:20:19;;;;;;;7.47;2.65;;;;;;;15.89;52.35;102091.31;7391529;19;20021;-77
2024/04/11 09:22:55;;;;;;;8.70;3.03;;;;;;;16.17;49.76;102123.06;7393983;19;20022;-78
2024/04/11 09:25:22;;;;;;;5.05;2.20;;;;;;;16.23;49.15;102125.47;7391074;19;20018;-78
2024/04/11 09:27:58;;;;;;;9.50;2.85;;;;;;;16.06;49.01;102087.88;7393859;19;20014;-80
2024/04/11 09:30:34;;;;;;;6.20;2.58;;;;;;;16.34;49.04;102092.94;7391090;19;20026;-80
2024/04/11 09:33:08;;;;;;;7.50;2.72;;;;;;;16.70;47.64;102098.44;7396745;19;20014;-79
2024/04/11 09:35:40;;;;;;;9.55;2.42;;;;;;;16.80;45.63;102137.25;7369562;19;20400;-81
2024/04/11 09:38:12;;;;;;;10.40;2.40;;;;;;;16.57;45.53;102126.66;7392821;19;20026;-80
2024/04/11 09:40:44;;;;;;;3.60;2.10;;;;;;;16.89;45.01;102128.78;7392783;19;20022;-80
2024/04/11 09:43:15;;;;;;;5.85;2.00;;;;;;;17.16;42.62;102108.75;7397634;19;20026;-79
2024/04/11 09:45:50;;;;;;;8.25;2.20;;;;;;;17.15;42.78;102108.88;7411282;19;20042;-79
2024/04/11 09:48:21;;;;;;;6.13;2.28;;;;;;;16.91;43.44;102108.19;7394951;19;20022;-80
2024/04/11 09:50:48;;;;;;;4.40;1.88;;;;;;;16.67;42.84;102085.25;7393088;19;20029;-79
2024/04/11 09:53:26;;;;;;;8.73;2.28;;;;;;;16.97;41.74;102121.28;7393117;19;20047;-80
2024/04/11 09:55:53;;;;;;;4.35;1.80;;;;;;;16.70;41.19;102087.75;7370597;19;20033;-80
2024/04/11 09:58:21;;;;;;;7.47;1.92;;;;;;;16.42;40.50;102040.84;7393454;19;20043;-79
2024/04/11 10:01:04;;;;;;;5.97;1.98;;;;;;;16.59;40.08;102044.56;7392180;19;20754;-80
2024/04/11 10:03:45;;;;;;;6.03;1.70;;;;;;;16.95;40.22;102096.41;7396071;19;20010;-81
2024/04/11 10:06:16;;;;;;;5.53;2.10;;;;;;;16.83;40.58;102095.16;7390176;19;20711;-80
2024/04/11 10:08:48;;;;;;;6.20;1.95;;;;;;;16.75;41.20;102113.38;7393091;19;20090;-80
2024/04/11 10:11:19;;;;;;;4.72;1.33;;;;;;;16.77;41.19;102094.56;7391424;19;20025;-80
2024/04/11 10:13:49;;;;;;;5.60;1.40;;;;;;;17.12;41.03;102115.22;7392995;19;20015;-81
2024/04/11 10:16:22;;;;;;;3.28;1.52;;;;;;;16.71;39.81;102030.63;7390785;19;20034;-81
2024/04/11 10:19:04;;;;;;;5.20;1.67;;;;;;;17.10;39.13;102089.47;7393970;19;20030;-80
2024/04/11 10:21:32;;;;;;;6.93;2.30;;;;;;;16.95;39.39;102091.06;7390538;19;20010;-79
2024/04/11 10:24:03;;;;;;;5.65;1.98;;;;;;;16.86;40.97;102120.03;7396249;19;20030;-82
2024/04/11 10:26:32;;;;;;;12.80;7.45;;;;;;;17.08;40.98;102121.66;7393882;19;20014;-78
2024/04/11 10:29:19;;;;;;;7.90;2.20;;;;;;;17.16;41.02;102106.09;7395972;19;20018;-80
2024/04/11 10:31:52;;;;;;;6.07;2.92;;;;;;;17.33;40.09;102113.31;7393155;19;20943;-80
2024/04/11 10:34:25;;;;;;;8.18;2.88;;;;;;;17.46;38.65;102095.75;7393332;19;20011;-81
2024/04/11 10:37:14;;;;;;;6.72;1.58;;;;;;;17.54;38.61;102100.69;7388873;19;20030;-79
2024/04/11 10:39:40;;;;;;;6.00;1.85;;;;;;;17.47;38.77;102136.78;7391544;19;20002;-78
2024/04/11 10:42:14;;;;;;;5.03;1.60;;;;;;;17.03;39.57;102142.41;7406204;19;20010;-76
2024/04/11 10:44:43;;;;;;;5.78;1.63;;;;;;;16.49;40.49;102061.03;7414838;19;20094;-78
2024/04/11 10:47:12;;;;;;;7.45;1.80;;;;;;;16.96;39.61;102118.69;7412590;19;20610;-81
2024/04/11 10:49:42;;;;;;;4.35;1.60;;;;;;;16.95;39.28;102143.69;7371302;19;20335;-80
2024/04/11 10:52:19;;;;;;;5.45;1.60;;;;;;;16.75;39.75;102136.56;7390635;19;20010;-80
2024/04/11 10:54:50;;;;;;;3.85;1.30;;;;;;;16.36;40.44;102097.28;7394473;19;20024;-79
2024/04/11 10:57:16;;;;;;;5.78;1.90;;;;;;;16.53;40.61;102109.88;7391367;19;20014;-77
2024/04/11 10:59:53;;;;;;;7.03;2.10;;;;;;;16.93;40.00;102108.97;7397922;19;20021;-81
2024/04/11 11:02:23;;;;;;;6.90;1.42;;;;;;;16.92;40.22;102066.25;7411350;19;20040;-79
2024/04/11 11:04:50;;;;;;;6.03;1.63;;;;;;;17.30;39.73;102112.63;7407505;19;20017;-80
2024/04/11 11:07:23;;;;;;;5.15;1.33;;;;;;;17.09;40.06;102096.63;7391437;19;20432;-79
2024/04/11 11:09:52;;;;;;;4.65;1.63;;;;;;;16.76;40.47;102077.66;7391274;19;20465;-78
2024/04/11 11:12:19;;;;;;;4.68;1.40;;;;;;;17.00;40.08;102129.16;7394473;19;20006;-80
2024/04/11 11:14:49;;;;;;;3.97;1.50;;;;;;;16.98;40.75;102115.00;7402485;19;20006;-80
2024/04/11 11:17:17;;;;;;;5.15;1.55;;;;;;;17.27;40.53;102123.47;7401209;19;20003;-78
2024/04/11 11:19:44;;;;;;;5.70;1.73;;;;;;;17.41;40.40;102127.22;7392890;19;20017;-79
2024/04/11 11:22:10;;;;;;;8.13;2.05;;;;;;;17.21;40.64;102107.69;7392780;19;20026;-80
2024/04/11 11:24:37;;;;;;;5.55;1.60;;;;;;;17.12;41.03;102093.81;7401406;19;20017;-79
2024/04/11 11:27:05;;;;;;;6.90;1.50;;;;;;;17.43;41.31;102109.28;7418344;19;20050;-78